Allons, TN

8:58 PM CST on February 28, 2015 (GMT -0600)
On the Square | Change Station
CLOSE
Current Station
Personal Weather Station
Location: Celina, TN
Elevation: 574 ft
Nearby Weather Stations

Elev 574 ft 36.55 °N, 85.50 °W | Updated 0 second ago

Mostly Cloudy
Mostly Cloudy
36.9 °F
Feels Like 37 °F
N
0.0
Wind Variable Wind from NE
Gusts 0.0 mph

Today
High -- | Low -- °F
--% Chance of Precip.
Yesterday
High -- | Low -- °F
Precip. -- in
6:13 AM 5:34 PM
Waxing Gibbous, 82% visible
Pressure 30.43 in
Visibility 10.0 miles
Clouds Few 11000 ft
Windchill 37 °F
Dew Point 31 °F
Humidity 79%
Rainfall 0.00 in
Snow Depth Not available.
UV 0 out of 12
Pollen 2.00 out of 12
Air Quality Not available.
Flu Activity Not available.
METAR KSRB 010255Z AUTO 19005KT 10SM FEW110 07/M01 A3043 RMK

More Conditions Fewer Conditions

Pressure 30.43 in
Visibility 10.0 miles
Clouds Few 11000 ft
Windchill 37 °F
Dew Point 31 °F
Humidity 79%
Rainfall 0.00 in
Snow Depth Not available.
UV 0 out of 12
Pollen 2.00 out of 12
Air Quality Not available.
Flu Activity Not available.
METAR KSRB 010255Z AUTO 19005KT 10SM FEW110 07/M01 A3043 RMK

More Conditions Fewer Conditions

10-Day Weather Forecast

Almanac

Astronomy

Feb. 28, 2015 Rise Set
Actual Time
Civil Twilight
Nautical Twilight
Astronomical Twilight
Moon
Length of Visible Light
Length of Day
Tomorrow will be .
, % of the Moon is Illuminated

Today's Extremes

State Highs State Lows

Community

WunderPhotos

Upload Photos

1,801,276 photos uploaded!

WunderBlogs® & News

Nearby

Air Quality

  Air Quality AQ Index Pollutant
Not available.

Snow Depth

Station Depth Elevation

Earthquake Activity

City Distance Mag. Time & Date
Minimum magnitude displayed is 2.5.

Coastal Water Temperatures

Place Temperature

Nearby Weather Stations